createdAt,value
2019-06-07T00:00:40.370Z,13.11
2019-06-07T00:03:10.727Z,13.04
2019-06-07T00:05:38.235Z,13.07
2019-06-07T00:08:10.810Z,13.05
2019-06-07T00:10:37.331Z,12.99
2019-06-07T00:13:06.886Z,12.97
2019-06-07T00:15:35.490Z,12.95
2019-06-07T00:18:03.919Z,12.94
2019-06-07T00:20:32.338Z,12.89
2019-06-07T00:23:00.833Z,12.87
2019-06-07T00:25:29.264Z,12.84
2019-06-07T00:27:57.677Z,12.78
2019-06-07T00:30:45.728Z,12.68
2019-06-07T00:32:56.301Z,12.63
2019-06-07T00:35:24.720Z,12.70
2019-06-07T00:37:53.128Z,12.74
2019-06-07T00:40:31.496Z,12.64
2019-06-07T00:42:51.682Z,12.60
2019-06-07T00:45:22.421Z,12.58
2019-06-07T00:47:50.314Z,12.52
2019-06-07T00:50:21.933Z,12.52
2019-06-07T00:55:20.627Z,12.41
2019-06-07T00:57:49.480Z,12.36
2019-06-07T01:00:22.314Z,12.31
2019-06-07T01:02:49.731Z,12.25
2019-06-07T01:05:22.531Z,12.11
2019-06-07T01:07:48.304Z,12.16
2019-06-07T01:10:46.483Z,12.12
2019-06-07T01:12:48.421Z,12.08
2019-06-07T01:15:22.205Z,11.97
2019-06-07T01:18:33.148Z,12.00
2019-06-07T01:20:22.805Z,12.05
2019-06-07T01:22:49.727Z,12.04
2019-06-07T01:25:21.994Z,11.93
2019-06-07T01:27:48.374Z,11.94
2019-06-07T01:30:18.949Z,11.83
2019-06-07T01:32:48.743Z,11.85
2019-06-07T01:35:20.227Z,11.69
2019-06-07T01:37:47.781Z,11.76
2019-06-07T01:40:17.180Z,11.73
2019-06-07T01:42:46.811Z,11.65
2019-06-07T01:45:18.366Z,11.59
2019-06-07T01:47:47.327Z,11.59
2019-06-07T01:50:17.090Z,11.60
2019-06-07T01:52:46.079Z,11.58
2019-06-07T01:55:16.151Z,11.51
2019-06-07T01:57:48.366Z,11.57
2019-06-07T02:00:15.747Z,11.57
2019-06-07T02:02:44.178Z,11.66
2019-06-07T02:05:12.934Z,11.68
2019-06-07T02:07:41.360Z,11.63
2019-06-07T02:10:10.405Z,11.63
2019-06-07T02:12:43.291Z,11.68
2019-06-07T02:15:09.791Z,11.70
2019-06-07T02:17:38.788Z,11.78
2019-06-07T02:20:07.849Z,11.75
2019-06-07T02:22:36.258Z,11.75
2019-06-07T02:25:34.996Z,11.81
2019-06-07T02:27:36.744Z,11.78
2019-06-07T02:30:36.906Z,11.74
2019-06-07T02:32:37.512Z,11.73
2019-06-07T02:35:06.678Z,11.70
2019-06-07T02:37:36.768Z,11.71
2019-06-07T02:40:07.721Z,11.75
2019-06-07T02:42:42.158Z,11.74
2019-06-07T02:45:08.635Z,11.78
2019-06-07T02:47:38.362Z,11.73
2019-06-07T02:50:09.606Z,11.72
2019-06-07T02:52:40.601Z,11.69
2019-06-07T02:55:09.327Z,11.69
2019-06-07T02:57:41.637Z,11.64
2019-06-07T03:00:40.513Z,11.63
2019-06-07T03:02:41.677Z,11.54
2019-06-07T03:05:11.141Z,11.49
2019-06-07T03:07:44.964Z,11.49
2019-06-07T03:10:11.379Z,11.48
2019-06-07T03:12:43.038Z,11.45
2019-06-07T03:15:30.132Z,11.47
2019-06-07T03:17:56.959Z,11.49
2019-06-07T03:20:27.616Z,11.46
2019-06-07T03:23:00.196Z,11.39
2019-06-07T03:25:35.720Z,11.37
2019-06-07T03:28:01.853Z,11.37
2019-06-07T03:30:52.165Z,11.36
2019-06-07T03:33:00.411Z,11.37
2019-06-07T03:35:31.318Z,11.34
2019-06-07T03:37:58.995Z,11.26
2019-06-07T03:40:27.351Z,11.35
2019-06-07T03:42:55.777Z,11.46
2019-06-07T03:45:24.184Z,11.50
2019-06-07T03:47:52.635Z,11.51
2019-06-07T03:50:21.024Z,11.51
2019-06-07T03:52:49.432Z,11.56
2019-06-07T03:55:17.850Z,11.60
2019-06-07T03:58:30.117Z,11.58
2019-06-07T04:00:16.502Z,11.55
2019-06-07T04:02:44.894Z,11.58
2019-06-07T04:05:13.299Z,11.57
2019-06-07T04:07:44.399Z,11.55
2019-06-07T04:10:12.050Z,11.54
2019-06-07T04:12:43.999Z,11.59
2019-06-07T04:15:10.846Z,11.54
2019-06-07T04:17:49.779Z,11.49
2019-06-07T04:20:09.943Z,11.47
2019-06-07T04:22:40.427Z,11.39
2019-06-07T04:25:11.057Z,11.32
2019-06-07T04:27:41.138Z,11.38
2019-06-07T04:30:11.713Z,11.45
2019-06-07T04:32:44.657Z,11.53
2019-06-07T04:35:11.256Z,11.54
2019-06-07T04:37:41.658Z,11.48
2019-06-07T04:40:10.279Z,11.53
2019-06-07T04:42:44.928Z,11.58
2019-06-07T04:45:32.389Z,11.57
2019-06-07T04:47:42.982Z,11.62
2019-06-07T04:50:11.647Z,11.63
2019-06-07T04:52:44.379Z,11.61
2019-06-07T04:55:10.460Z,11.66
2019-06-07T04:57:40.416Z,11.69
2019-06-07T05:00:45.609Z,11.72
2019-06-07T05:02:42.887Z,11.75
2019-06-07T05:05:10.080Z,11.77
2019-06-07T05:07:40.859Z,11.79
2019-06-07T05:10:09.269Z,11.84
2019-06-07T05:12:40.471Z,11.94
2019-06-07T05:15:07.892Z,12.03
2019-06-07T05:17:37.211Z,12.16
2019-06-07T05:20:06.882Z,12.17
2019-06-07T05:22:42.033Z,12.24
2019-06-07T05:25:06.098Z,12.26
2019-06-07T05:27:37.928Z,12.23
2019-06-07T05:30:23.806Z,12.28
2019-06-07T05:32:43.677Z,12.33
2019-06-07T05:35:11.253Z,12.36
2019-06-07T05:37:41.784Z,12.48
2019-06-07T05:40:10.666Z,12.57
2019-06-07T05:42:43.168Z,12.67
2019-06-07T05:45:09.550Z,12.80
2019-06-07T05:47:42.857Z,12.88
2019-06-07T05:50:37.959Z,12.90
2019-06-07T05:52:41.725Z,13.01
2019-06-07T05:55:08.748Z,13.09
2019-06-07T05:57:40.515Z,13.28
2019-06-07T06:00:09.022Z,13.61
2019-06-07T06:02:57.661Z,13.77
2019-06-07T06:05:07.600Z,13.85
2019-06-07T06:07:42.252Z,14.03
2019-06-07T06:10:08.468Z,14.22
2019-06-07T06:12:40.841Z,14.41
2019-06-07T06:15:10.211Z,14.53
2019-06-07T06:17:42.661Z,14.68
2019-06-07T06:20:09.501Z,14.95
2019-06-07T06:22:43.516Z,15.12
2019-06-07T06:28:07.815Z,15.26
2019-06-07T06:30:11.954Z,15.49
2019-06-07T06:32:47.141Z,15.73
2019-06-07T06:35:11.137Z,15.85
2019-06-07T06:37:42.586Z,16.01
2019-06-07T06:40:11.510Z,16.05
2019-06-07T06:42:39.933Z,16.00
2019-06-07T06:45:09.312Z,16.13
2019-06-07T06:47:38.236Z,16.12
2019-06-07T06:50:08.026Z,16.25
2019-06-07T06:52:36.516Z,16.25
2019-06-07T06:55:09.447Z,16.27
2019-06-07T06:57:40.191Z,16.22
2019-06-07T07:00:11.033Z,16.30
2019-06-07T07:03:26.850Z,16.39
2019-06-07T07:05:10.305Z,16.28
2019-06-07T07:07:40.274Z,16.33
2019-06-07T07:10:09.822Z,16.56
2019-06-07T07:12:38.235Z,16.75
2019-06-07T07:15:08.000Z,16.78
2019-06-07T07:17:50.731Z,16.78
2019-06-07T07:20:07.434Z,16.68
2019-06-07T07:22:35.856Z,16.77
2019-06-07T07:25:06.310Z,16.84
2019-06-07T07:27:34.791Z,16.92
2019-06-07T07:30:35.600Z,16.80
2019-06-07T07:32:35.075Z,16.78
2019-06-07T07:35:04.674Z,16.72
2019-06-07T07:37:33.084Z,16.75
2019-06-07T07:40:34.920Z,16.90
2019-06-07T07:42:31.651Z,16.96
2019-06-07T07:45:00.072Z,17.08
2019-06-07T07:47:28.539Z,17.02
2019-06-07T07:49:59.072Z,16.99
2019-06-07T07:52:27.110Z,17.00
2019-06-07T07:54:57.787Z,16.98
2019-06-07T07:57:25.682Z,17.09
2019-06-07T08:00:06.109Z,16.92
2019-06-07T08:02:24.238Z,16.96
2019-06-07T08:05:16.616Z,17.11
2019-06-07T08:07:22.791Z,17.23
2019-06-07T08:09:55.674Z,17.32
2019-06-07T08:12:21.414Z,17.56
2019-06-07T08:14:51.124Z,17.84
2019-06-07T08:17:19.955Z,18.03
2019-06-07T08:19:49.956Z,18.03
2019-06-07T08:22:18.576Z,18.05
2019-06-07T08:24:50.463Z,18.03
2019-06-07T08:27:25.924Z,18.28
2019-06-07T08:30:06.287Z,18.50
2019-06-07T08:32:17.483Z,18.65
2019-06-07T08:34:45.913Z,18.37
2019-06-07T08:37:14.704Z,18.80
2019-06-07T08:39:43.115Z,18.91
2019-06-07T08:42:17.665Z,18.96
2019-06-07T08:44:41.655Z,19.50
2019-06-07T08:47:20.085Z,19.99
2019-06-07T08:49:40.196Z,19.85
2019-06-07T08:52:12.371Z,19.94
2019-06-07T08:54:38.758Z,20.30
2019-06-07T08:57:20.759Z,20.04
2019-06-07T08:59:37.302Z,19.51
2019-06-07T09:02:22.496Z,19.55
2019-06-07T09:04:35.859Z,19.60
2019-06-07T09:07:14.718Z,19.37
2019-06-07T09:09:34.406Z,19.57
2019-06-07T09:12:08.183Z,20.18
2019-06-07T09:14:32.988Z,20.60
2019-06-07T09:17:08.780Z,20.62
2019-06-07T09:19:31.561Z,20.62
2019-06-07T09:22:03.353Z,20.74
2019-06-07T09:24:30.103Z,20.71
2019-06-07T09:27:02.437Z,20.55
2019-06-07T09:29:28.647Z,20.42
2019-06-07T09:32:00.608Z,20.40
2019-06-07T09:34:27.377Z,20.01
2019-06-07T09:36:58.255Z,19.66
2019-06-07T09:39:26.103Z,19.62
2019-06-07T09:41:54.518Z,19.69
2019-06-07T09:44:26.154Z,19.75
2019-06-07T09:47:14.266Z,19.70
2019-06-07T09:49:32.069Z,19.37
2019-06-07T09:51:53.319Z,19.22
2019-06-07T09:55:03.837Z,19.34
2019-06-07T09:56:51.876Z,19.68
2019-06-07T09:59:20.285Z,19.80
2019-06-07T10:01:49.565Z,19.83
2019-06-07T10:04:30.807Z,19.90
2019-06-07T10:06:48.217Z,20.03
2019-06-07T10:11:46.891Z,20.52
2019-06-07T10:14:15.317Z,20.41
2019-06-07T10:16:47.137Z,20.36
2019-06-07T10:19:13.883Z,20.32
2019-06-07T10:21:42.263Z,20.20
2019-06-07T10:24:10.754Z,19.98
2019-06-07T10:26:39.170Z,19.85
2019-06-07T10:29:09.109Z,20.29
2019-06-07T10:31:37.731Z,20.61
2019-06-07T10:34:06.603Z,21.12
2019-06-07T10:36:35.245Z,21.37
2019-06-07T10:39:05.017Z,21.21
2019-06-07T10:41:33.431Z,21.23
2019-06-07T10:44:03.213Z,21.50
2019-06-07T10:46:31.750Z,21.86
2019-06-07T10:49:01.596Z,22.52
2019-06-07T10:51:30.113Z,22.87
2019-06-07T10:53:58.526Z,22.84
2019-06-07T10:56:26.926Z,23.03
2019-06-07T10:58:55.343Z,22.79
2019-06-07T11:01:23.742Z,22.72
2019-06-07T11:03:52.163Z,22.86
2019-06-07T11:06:20.606Z,22.57
2019-06-07T11:08:50.598Z,22.32
2019-06-07T11:11:19.008Z,22.52
2019-06-07T11:13:47.455Z,22.82
2019-06-07T11:16:15.901Z,22.79
2019-06-07T11:18:44.296Z,22.79
2019-06-07T11:21:12.697Z,23.12
2019-06-07T11:23:41.116Z,23.48
2019-06-07T11:26:43.093Z,23.91
2019-06-07T11:29:12.779Z,24.03
2019-06-07T11:31:41.290Z,24.31
2019-06-07T11:34:10.453Z,24.31
2019-06-07T11:36:38.931Z,24.50
2019-06-07T11:39:09.058Z,24.72
2019-06-07T11:41:37.539Z,25.17
2019-06-07T11:44:06.672Z,25.16
2019-06-07T11:46:35.241Z,24.76
2019-06-07T11:49:03.750Z,24.72
2019-06-07T11:51:32.155Z,24.76
2019-06-07T11:54:00.610Z,25.20
2019-06-07T11:56:29.018Z,25.60
2019-06-07T11:58:57.452Z,25.31
2019-06-07T12:01:25.850Z,25.34
2019-06-07T12:03:54.271Z,25.68
2019-06-07T12:06:22.687Z,25.52
2019-06-07T12:08:51.123Z,26.04
2019-06-07T12:11:19.534Z,25.89
2019-06-07T12:13:47.958Z,26.21
2019-06-07T12:16:17.400Z,26.31
2019-06-07T12:18:45.873Z,26.47
2019-06-07T12:21:15.650Z,25.98
2019-06-07T12:23:44.273Z,25.73
2019-06-07T12:26:12.679Z,26.18
2019-06-07T12:28:41.091Z,26.79
2019-06-07T12:31:10.768Z,26.66
2019-06-07T12:33:39.507Z,26.45
2019-06-07T12:36:08.000Z,25.83
2019-06-07T12:38:36.422Z,25.99
2019-06-07T12:41:04.819Z,26.30
2019-06-07T12:43:33.235Z,26.13
2019-06-07T12:46:01.658Z,26.00
2019-06-07T12:48:30.066Z,26.33
2019-06-07T12:50:58.520Z,26.52
2019-06-07T12:53:28.283Z,26.38
2019-06-07T12:56:00.027Z,25.91
2019-06-07T12:58:34.496Z,25.99
2019-06-07T13:00:59.663Z,26.51
2019-06-07T13:03:27.218Z,27.02
2019-06-07T13:05:55.650Z,26.50
2019-06-07T13:08:24.056Z,26.58
2019-06-07T13:10:52.488Z,26.30
2019-06-07T13:13:22.381Z,26.51
2019-06-07T13:15:51.199Z,26.31
2019-06-07T13:18:21.237Z,26.63
2019-06-07T13:20:49.760Z,27.16
2019-06-07T13:23:19.230Z,27.28
2019-06-07T13:25:47.968Z,27.48
2019-06-07T13:28:17.256Z,27.44
2019-06-07T13:30:46.548Z,27.12
2019-06-07T13:33:14.960Z,27.26
2019-06-07T13:35:44.454Z,27.50
2019-06-07T13:38:14.494Z,27.44
2019-06-07T13:40:42.904Z,27.32
2019-06-07T13:43:11.307Z,27.32
2019-06-07T13:45:39.730Z,27.43
2019-06-07T13:48:08.157Z,27.31
2019-06-07T13:50:36.585Z,27.30
2019-06-07T13:53:04.992Z,27.77
2019-06-07T13:55:33.408Z,28.25
2019-06-07T13:58:01.812Z,28.40
2019-06-07T14:00:30.242Z,28.37
2019-06-07T14:02:58.662Z,28.60
2019-06-07T14:05:27.329Z,27.91
2019-06-07T14:07:55.769Z,28.34
2019-06-07T14:10:25.514Z,28.37
2019-06-07T14:12:54.079Z,28.37
2019-06-07T14:15:24.259Z,28.90
2019-06-07T14:17:52.820Z,28.86
2019-06-07T14:20:26.762Z,28.53
2019-06-07T14:22:54.240Z,28.48
2019-06-07T14:25:23.225Z,28.47
2019-06-07T14:27:51.644Z,28.71
2019-06-07T14:30:21.816Z,28.82
2019-06-07T14:32:50.503Z,28.83
2019-06-07T14:35:19.089Z,28.78
2019-06-07T14:37:47.506Z,29.22
2019-06-07T14:40:17.225Z,28.97
2019-06-07T14:42:45.645Z,29.36
2019-06-07T14:45:15.514Z,29.36
2019-06-07T14:47:43.932Z,29.11
2019-06-07T14:50:13.689Z,29.26
2019-06-07T14:52:42.110Z,29.32
2019-06-07T14:55:11.067Z,29.60
2019-06-07T14:57:39.584Z,30.07
2019-06-07T15:00:15.156Z,30.07
2019-06-07T15:02:43.596Z,30.08
2019-06-07T15:05:12.278Z,29.84
2019-06-07T15:07:40.933Z,29.83
2019-06-07T15:10:11.944Z,29.32
2019-06-07T15:12:40.379Z,29.13
2019-06-07T15:15:09.721Z,29.91
2019-06-07T15:17:39.207Z,30.05
2019-06-07T15:20:08.786Z,29.82
2019-06-07T15:22:38.787Z,30.55
2019-06-07T15:25:11.223Z,30.78
2019-06-07T15:27:39.644Z,30.93
2019-06-07T15:30:10.948Z,30.24
2019-06-07T15:32:39.975Z,29.85
2019-06-07T15:35:09.580Z,30.31
2019-06-07T15:37:39.187Z,30.45
2019-06-07T15:40:09.164Z,30.38
2019-06-07T15:42:47.459Z,30.78
2019-06-07T15:45:09.369Z,30.96
2019-06-07T15:47:38.478Z,30.98
2019-06-07T15:50:11.392Z,30.98
2019-06-07T15:52:41.286Z,31.03
2019-06-07T15:55:10.615Z,31.13
2019-06-07T15:57:39.725Z,30.87
2019-06-07T16:00:14.155Z,30.72
2019-06-07T16:02:42.884Z,30.79
2019-06-07T16:05:11.703Z,30.71
2019-06-07T16:07:40.516Z,30.29
2019-06-07T16:10:09.854Z,30.25
2019-06-07T16:12:38.776Z,30.07
2019-06-07T16:15:09.422Z,30.03
2019-06-07T16:17:39.137Z,29.84
2019-06-07T16:20:08.594Z,30.00
2019-06-07T16:22:37.685Z,29.62
2019-06-07T16:25:07.316Z,29.85
2019-06-07T16:27:36.800Z,30.14
2019-06-07T16:30:09.905Z,30.41
2019-06-07T16:32:39.373Z,30.06
2019-06-07T16:35:09.133Z,30.00
2019-06-07T16:37:41.048Z,29.92
2019-06-07T16:40:12.775Z,30.00
2019-06-07T16:42:42.717Z,29.25
2019-06-07T16:45:13.778Z,29.52
2019-06-07T16:47:43.603Z,29.85
2019-06-07T16:50:13.285Z,30.06
2019-06-07T16:52:42.094Z,29.96
2019-06-07T16:55:11.639Z,30.11
2019-06-07T16:57:40.969Z,30.13
2019-06-07T17:00:11.083Z,30.22
2019-06-07T17:02:40.190Z,30.37
2019-06-07T17:05:09.440Z,29.94
2019-06-07T17:07:38.351Z,30.03
2019-06-07T17:10:08.545Z,30.07
2019-06-07T17:12:38.448Z,30.68
2019-06-07T17:15:10.177Z,30.61
2019-06-07T17:17:38.859Z,30.09
2019-06-07T17:20:08.323Z,30.10
2019-06-07T17:22:36.908Z,30.14
2019-06-07T17:25:09.165Z,30.29
2019-06-07T17:27:37.609Z,30.67
2019-06-07T17:30:10.706Z,30.64
2019-06-07T17:32:50.843Z,30.31
2019-06-07T17:35:09.595Z,30.11
2019-06-07T17:37:38.030Z,30.34
2019-06-07T17:40:07.478Z,30.39
2019-06-07T17:42:35.900Z,30.43
2019-06-07T17:45:07.351Z,30.21
2019-06-07T17:47:35.772Z,30.60
2019-06-07T17:50:06.676Z,30.45
2019-06-07T17:52:35.150Z,30.45
2019-06-07T17:55:05.315Z,30.39
2019-06-07T17:57:33.732Z,29.65
2019-06-07T18:00:27.157Z,29.58
2019-06-07T18:02:32.764Z,29.69
2019-06-07T18:05:01.331Z,29.83
2019-06-07T18:07:31.010Z,29.45
2019-06-07T18:10:00.867Z,29.47
2019-06-07T18:12:29.271Z,29.16
2019-06-07T18:14:57.694Z,29.15
2019-06-07T18:17:34.635Z,28.72
2019-06-07T18:19:56.247Z,28.70
2019-06-07T18:22:24.659Z,28.49
2019-06-07T18:24:53.163Z,27.84
2019-06-07T18:27:21.546Z,27.41
2019-06-07T18:29:50.528Z,27.20
2019-06-07T18:32:18.970Z,26.90
2019-06-07T18:34:48.682Z,26.14
2019-06-07T18:37:17.072Z,25.76
2019-06-07T18:39:46.938Z,25.66
2019-06-07T18:42:15.583Z,25.94
2019-06-07T18:44:44.014Z,26.51
2019-06-07T18:47:12.430Z,26.63
2019-06-07T18:49:40.853Z,25.97
2019-06-07T18:52:13.617Z,25.86
2019-06-07T18:54:42.023Z,26.47
2019-06-07T18:57:12.350Z,26.04
2019-06-07T18:59:40.571Z,25.44
2019-06-07T19:02:09.063Z,24.97
2019-06-07T19:04:37.487Z,24.80
2019-06-07T19:07:05.905Z,24.56
2019-06-07T19:09:34.329Z,24.58
2019-06-07T19:12:02.743Z,24.35
2019-06-07T19:14:36.965Z,24.15
2019-06-07T19:17:01.297Z,24.06
2019-06-07T19:19:29.723Z,23.94
2019-06-07T19:21:58.343Z,23.82
2019-06-07T19:24:26.743Z,23.63
2019-06-07T19:26:56.604Z,23.58
2019-06-07T19:29:25.270Z,23.52
2019-06-07T19:31:54.873Z,23.57
2019-06-07T19:34:23.485Z,23.26
2019-06-07T19:36:51.910Z,23.35
2019-06-07T19:39:20.322Z,23.32
2019-06-07T19:41:48.822Z,23.21
2019-06-07T19:44:17.256Z,23.18
2019-06-07T19:46:45.671Z,23.12
2019-06-07T19:49:14.110Z,23.17
2019-06-07T19:51:42.516Z,23.20
2019-06-07T19:54:10.935Z,22.95
2019-06-07T19:56:39.345Z,22.62
2019-06-07T19:59:07.755Z,22.24
2019-06-07T20:01:36.210Z,22.37
2019-06-07T20:04:04.617Z,22.37
2019-06-07T20:06:33.092Z,22.41
2019-06-07T20:09:02.833Z,22.52
2019-06-07T20:11:31.562Z,22.59
2019-06-07T20:14:00.787Z,22.61
2019-06-07T20:16:29.235Z,22.60
2019-06-07T20:18:58.123Z,22.59
2019-06-07T20:21:26.661Z,22.57
2019-06-07T20:23:55.066Z,22.50
2019-06-07T20:26:23.504Z,22.36
2019-06-07T20:28:51.918Z,22.29
2019-06-07T20:31:20.376Z,22.24
2019-06-07T20:33:48.774Z,22.16
2019-06-07T20:36:17.207Z,22.25
2019-06-07T20:38:46.766Z,22.04
2019-06-07T20:41:15.182Z,21.94
2019-06-07T20:43:43.590Z,21.83
2019-06-07T20:46:12.013Z,21.76
2019-06-07T20:48:40.421Z,21.70
2019-06-07T20:51:08.866Z,21.51
2019-06-07T20:53:37.239Z,21.31
2019-06-07T20:56:06.782Z,20.20
2019-06-07T20:58:35.359Z,20.20
2019-06-07T21:01:04.769Z,19.61
2019-06-07T21:03:33.266Z,19.27
2019-06-07T21:06:01.709Z,19.16
2019-06-07T21:08:30.125Z,18.97
2019-06-07T21:10:59.927Z,18.48
2019-06-07T21:13:28.435Z,17.99
2019-06-07T21:15:56.866Z,17.91
2019-06-07T21:18:25.278Z,17.77
2019-06-07T21:20:53.962Z,17.51
2019-06-07T21:23:22.367Z,17.46
2019-06-07T21:25:50.783Z,17.37
2019-06-07T21:28:19.192Z,17.22
2019-06-07T21:30:47.619Z,17.12
2019-06-07T21:33:16.049Z,17.06
2019-06-07T21:35:44.473Z,16.87
2019-06-07T21:38:12.919Z,16.65
2019-06-07T21:40:41.313Z,16.56
2019-06-07T21:43:10.649Z,16.40
2019-06-07T21:45:39.119Z,16.39
2019-06-07T21:48:08.735Z,16.21
2019-06-07T21:50:37.316Z,16.12
2019-06-07T21:53:06.581Z,16.10
2019-06-07T21:55:35.076Z,16.02
2019-06-07T21:58:05.078Z,16.06
2019-06-07T22:00:57.464Z,15.96
2019-06-07T22:03:25.884Z,16.01
2019-06-07T22:05:54.299Z,16.11
2019-06-07T22:08:22.708Z,16.10
2019-06-07T22:10:51.130Z,15.97
2019-06-07T22:13:19.534Z,16.02
2019-06-07T22:15:47.962Z,16.01
2019-06-07T22:18:16.367Z,15.94
2019-06-07T22:20:44.791Z,15.99
2019-06-07T22:23:13.206Z,15.92
2019-06-07T22:25:41.624Z,15.82
2019-06-07T22:28:10.257Z,15.80
2019-06-07T22:30:38.632Z,15.80
2019-06-07T22:33:07.035Z,15.81
2019-06-07T22:35:35.432Z,15.83
2019-06-07T22:38:03.851Z,15.80
2019-06-07T22:40:32.260Z,15.80
2019-06-07T22:43:00.682Z,15.85
2019-06-07T22:45:29.091Z,15.69
2019-06-07T22:47:57.509Z,15.73
2019-06-07T22:50:25.924Z,15.65
2019-06-07T22:52:54.329Z,15.60
2019-06-07T22:55:22.730Z,15.69
2019-06-07T22:57:59.891Z,15.59
2019-06-07T23:00:30.071Z,15.60
2019-06-07T23:02:58.495Z,15.51
2019-06-07T23:05:26.969Z,15.52
2019-06-07T23:07:55.396Z,15.53
2019-06-07T23:10:23.811Z,15.32
2019-06-07T23:12:52.247Z,15.32
2019-06-07T23:15:20.982Z,15.28
2019-06-07T23:17:49.738Z,15.23
2019-06-07T23:20:19.991Z,15.26
2019-06-07T23:22:48.607Z,15.20
2019-06-07T23:25:21.850Z,15.02
2019-06-07T23:27:47.306Z,15.01
2019-06-07T23:30:16.664Z,14.95
2019-06-07T23:32:45.233Z,14.84
2019-06-07T23:35:15.262Z,14.90
2019-06-07T23:37:43.694Z,14.74
2019-06-07T23:40:15.133Z,14.65
2019-06-07T23:42:43.613Z,14.53
2019-06-07T23:45:13.642Z,14.44
2019-06-07T23:47:42.189Z,14.41
2019-06-07T23:50:11.485Z,14.33
2019-06-07T23:52:40.127Z,14.34
2019-06-07T23:55:09.367Z,14.30
2019-06-07T23:57:37.786Z,14.37
